Time;durP1;ratioP1;P1;durP2;ratioP2;P2;SDS_P1;SDS_P2;PMS_P1;PMS_P2;Temp;Humidity;BMP_temperature;BMP_pressure;BME280_temperature;BME280_humidity;BME280_pressure;Samples;Min_cycle;Max_cycle;Signal;HPM_P1;HPM_P2
2022/01/30 00:00:00;;;;;;;28.50;16.53;;;1.10;84.90;;;;;;5091017;28;20205;-75
2022/01/30 00:02:27;;;;;;;33.33;17.53;;;1.20;1.00;;;;;;5090691;28;20266;-75
2022/01/30 00:04:54;;;;;;;34.43;16.37;;;1.30;1.00;;;;;;5090819;28;20665;-75
2022/01/30 00:07:21;;;;;;;38.37;18.83;;;1.30;1.00;;;;;;5090495;28;20205;-75
2022/01/30 00:09:50;;;;;;;36.17;16.27;;;1.20;1.00;;;;;;5090900;28;20202;-75
2022/01/30 00:12:24;;;;;;;40.07;17.90;;;1.10;1.00;;;;;;5090382;28;20244;-75
2022/01/30 00:14:54;;;;;;;32.53;17.00;;;1.10;1.00;;;;;;5090555;28;20227;-75
2022/01/30 00:17:26;;;;;;;34.70;18.97;;;1.30;1.00;;;;;;5090883;28;20231;-75
2022/01/30 00:19:58;;;;;;;26.17;13.17;;;1.20;1.00;;;;;;5090576;28;20584;-75
2022/01/30 00:22:38;;;;;;;26.77;14.17;;;1.10;1.00;;;;;;5090363;28;20301;-75
2022/01/30 00:25:14;;;;;;;28.23;14.93;;;1.10;1.00;;;;;;5090118;28;20258;-75
2022/01/30 00:27:54;;;;;;;24.87;14.40;;;1.10;1.00;;;;;;5090240;28;20657;-75
2022/01/30 00:30:21;;;;;;;32.97;16.03;;;1.10;1.00;;;;;;5091460;28;20460;-75
2022/01/30 00:32:48;;;;;;;26.80;14.77;;;1.10;1.00;;;;;;5094698;28;20236;-74
2022/01/30 00:35:15;;;;;;;32.90;18.17;;;1.10;1.00;;;;;;5094285;28;20202;-75
2022/01/30 00:37:43;;;;;;;25.83;14.67;;;1.00;99.90;;;;;;5094580;28;20263;-75
2022/01/30 00:40:12;;;;;;;26.20;14.00;;;1.10;99.90;;;;;;5094143;28;20207;-75
2022/01/30 00:42:39;;;;;;;24.10;14.70;;;1.20;99.90;;;;;;5094362;28;20257;-74
2022/01/30 00:45:07;;;;;;;25.13;12.43;;;1.20;1.00;;;;;;5094220;28;20205;-75
2022/01/30 00:47:34;;;;;;;21.00;11.83;;;1.10;99.90;;;;;;5094305;28;20206;-75
2022/01/30 00:50:01;;;;;;;22.13;13.40;;;0.90;99.90;;;;;;5094410;28;20331;-75
2022/01/30 00:52:28;;;;;;;25.70;13.77;;;1.00;1.00;;;;;;5094431;28;20287;-74
2022/01/30 00:54:55;;;;;;;21.83;13.27;;;1.00;1.00;;;;;;5094364;28;20284;-79
2022/01/30 00:57:23;;;;;;;27.03;13.50;;;1.00;1.00;;;;;;5093690;28;20255;-75
2022/01/30 00:59:50;;;;;;;34.93;17.27;;;1.20;1.00;;;;;;5094260;28;20624;-76
2022/01/30 01:02:17;;;;;;;29.07;15.77;;;1.00;1.00;;;;;;5094024;28;20201;-75
2022/01/30 01:04:45;;;;;;;29.60;15.73;;;1.00;1.00;;;;;;5094100;28;20202;-78
2022/01/30 01:07:18;;;;;;;32.37;15.47;;;1.00;99.90;;;;;;5093534;28;20212;-75
2022/01/30 01:09:53;;;;;;;30.90;15.30;;;1.00;99.90;;;;;;5093884;28;20726;-75
2022/01/30 01:23:27;;;;;;;31.33;15.03;;;1.30;1.00;;;;;;5073123;28;20217;-74
2022/01/30 01:25:54;;;;;;;28.57;16.33;;;1.40;1.00;;;;;;5073308;28;20206;-75
2022/01/30 01:28:21;;;;;;;21.10;12.27;;;1.50;1.00;;;;;;5073198;28;20206;-75
2022/01/30 01:30:50;;;;;;;24.83;15.77;;;1.40;1.00;;;;;;5073481;28;20263;-75
2022/01/30 01:33:18;;;;;;;29.83;14.43;;;1.40;1.00;;;;;;5072822;28;20598;-76
2022/01/30 01:35:45;;;;;;;28.93;15.77;;;1.40;1.00;;;;;;5073314;28;20213;-77
2022/01/30 01:38:13;;;;;;;27.53;15.07;;;1.30;1.00;;;;;;5072895;28;20202;-75
2022/01/30 01:40:41;;;;;;;23.00;14.23;;;1.10;1.00;;;;;;5073026;28;20213;-75
2022/01/30 01:43:08;;;;;;;27.47;14.73;;;1.20;48.70;;;;;;5071573;28;20206;-74
2022/01/30 01:45:38;;;;;;;28.77;14.20;;;1.20;1.00;;;;;;5073060;28;20210;-74
2022/01/30 01:48:11;;;;;;;25.20;13.57;;;1.10;1.00;;;;;;5072785;28;20281;-76
2022/01/30 01:50:39;;;;;;;26.30;14.87;;;1.20;99.90;;;;;;5072895;28;20289;-76
2022/01/30 01:53:08;;;;;;;30.23;15.37;;;1.30;99.90;;;;;;5072762;28;20291;-76
2022/01/30 01:55:36;;;;;;;29.00;15.13;;;1.20;1.00;;;;;;5072725;28;20309;-75
2022/01/30 01:58:03;;;;;;;33.73;16.00;;;1.10;1.00;;;;;;5072550;28;20206;-74
2022/01/30 02:00:30;;;;;;;25.97;13.93;;;1.20;99.90;;;;;;5073230;28;20206;-74
2022/01/30 02:02:57;;;;;;;24.00;12.13;;;1.20;99.90;;;;;;5073007;28;20439;-75
2022/01/30 02:05:27;;;;;;;31.50;14.23;;;1.30;99.90;;;;;;5072526;28;20677;-75
2022/01/30 02:10:48;;;;;;;21.53;13.57;;;1.30;1.00;;;;;;5072550;28;20220;-75
2022/01/30 02:13:43;;;;;;;23.47;12.20;;;1.40;1.00;;;;;;5072090;28;20762;-75
2022/01/30 02:24:35;;;;;;;28.43;15.47;;;0.90;1.00;;;;;;5072198;28;20311;-75
2022/01/30 02:27:02;;;;;;;30.37;15.90;;;0.80;1.00;;;;;;5072320;28;20209;-74
2022/01/30 02:29:30;;;;;;;26.63;12.77;;;0.80;1.00;;;;;;5072444;28;20208;-74
2022/01/30 02:31:59;;;;;;;29.80;15.03;;;1.00;99.90;;;;;;5072499;28;20231;-74
2022/01/30 02:34:27;;;;;;;34.23;13.33;;;0.70;99.90;;;;;;5071621;28;20251;-73
2022/01/30 02:36:55;;;;;;;26.73;15.13;;;0.60;1.00;;;;;;5072066;28;20212;-73
2022/01/30 02:39:22;;;;;;;29.17;13.67;;;0.60;1.00;;;;;;5071535;28;20731;-74
2022/01/30 02:41:51;;;;;;;27.87;13.70;;;0.50;99.90;;;;;;5071945;28;20202;-75
2022/01/30 02:44:22;;;;;;;27.83;13.73;;;0.50;1.00;;;;;;5071748;28;20229;-75
2022/01/30 02:46:52;;;;;;;25.37;11.33;;;0.60;42.90;;;;;;5071839;28;20201;-75
2022/01/30 02:52:08;;;;;;;22.50;10.90;;;0.50;1.00;;;;;;5045308;28;20213;-74
2022/01/30 02:54:35;;;;;;;26.30;12.70;;;0.60;1.00;;;;;;5071240;28;20221;-77
2022/01/30 02:57:04;;;;;;;23.87;10.70;;;0.70;1.00;;;;;;5071794;28;20198;-73
2022/01/30 02:59:31;;;;;;;30.43;12.77;;;0.50;99.90;;;;;;5071611;28;20202;-75
2022/01/30 03:01:58;;;;;;;31.97;15.53;;;0.40;1.00;;;;;;5071887;28;20662;-75
2022/01/30 03:04:25;;;;;;;34.33;14.03;;;0.40;99.90;;;;;;5071076;28;20681;-75
2022/01/30 03:06:52;;;;;;;30.40;14.37;;;0.30;1.00;;;;;;5071284;28;20613;-76
2022/01/30 03:09:19;;;;;;;29.13;14.63;;;0.40;1.00;;;;;;5071106;28;20678;-75
2022/01/30 03:11:46;;;;;;;24.43;14.17;;;0.40;1.00;;;;;;5071399;28;20661;-74
2022/01/30 03:14:14;;;;;;;27.23;14.97;;;0.50;1.00;;;;;;5071177;28;20779;-74
2022/01/30 03:16:41;;;;;;;26.90;15.33;;;0.40;1.00;;;;;;5071524;28;20275;-76
2022/01/30 03:19:08;;;;;;;27.70;15.93;;;0.40;99.90;;;;;;5071008;28;20563;-73
2022/01/30 03:21:35;;;;;;;25.17;14.03;;;0.40;1.00;;;;;;5070998;28;20727;-73
2022/01/30 03:24:02;;;;;;;25.33;13.63;;;0.50;99.90;;;;;;5071075;28;20214;-73
2022/01/30 03:26:36;;;;;;;23.93;12.30;;;0.60;99.90;;;;;;5071366;28;20210;-77
2022/01/30 03:29:05;;;;;;;22.70;13.80;;;0.70;99.90;;;;;;5070831;28;20691;-74
2022/01/30 03:31:35;;;;;;;23.87;13.40;;;0.80;99.90;;;;;;5071082;28;20248;-74
2022/01/30 03:34:02;;;;;;;23.20;12.73;;;0.70;99.90;;;;;;5071064;28;20234;-74
2022/01/30 03:36:29;;;;;;;20.80;12.30;;;0.80;1.00;;;;;;5071151;28;20206;-76
2022/01/30 03:38:56;;;;;;;19.10;11.67;;;0.70;99.90;;;;;;5071182;28;20673;-74
2022/01/30 03:41:23;;;;;;;22.20;13.53;;;0.60;1.00;;;;;;5070503;28;20264;-73
2022/01/30 03:43:50;;;;;;;20.37;9.97;;;0.50;99.90;;;;;;5070891;28;20259;-76
2022/01/30 03:46:19;;;;;;;18.17;11.40;;;0.60;1.00;;;;;;5070349;28;20198;-77
2022/01/30 03:48:48;;;;;;;18.87;12.30;;;0.60;99.90;;;;;;5070910;28;20202;-74
2022/01/30 03:51:15;;;;;;;21.37;13.40;;;0.70;99.90;;;;;;5070254;28;20658;-74
2022/01/30 03:53:42;;;;;;;24.67;11.37;;;0.80;99.90;;;;;;5070651;28;20290;-75
2022/01/30 03:56:10;;;;;;;16.83;11.33;;;0.60;40.40;;;;;;5070660;28;20249;-75
2022/01/30 03:58:37;;;;;;;20.93;12.27;;;0.50;1.00;;;;;;5070907;28;20217;-76
2022/01/30 04:01:04;;;;;;;21.80;12.77;;;0.60;1.00;;;;;;5070411;28;20202;-76
2022/01/30 04:03:32;;;;;;;18.13;9.70;;;0.70;1.00;;;;;;5070785;28;20249;-72
2022/01/30 04:06:00;;;;;;;17.07;10.20;;;0.70;1.00;;;;;;5069766;28;20209;-73
2022/01/30 04:08:28;;;;;;;16.57;10.47;;;0.40;1.00;;;;;;5071172;28;20267;-75
2022/01/30 04:10:55;;;;;;;19.43;9.53;;;0.60;99.90;;;;;;5070844;28;20255;-75
2022/01/30 04:13:22;;;;;;;18.90;10.80;;;0.70;99.90;;;;;;5070355;28;20290;-75
2022/01/30 04:15:49;;;;;;;16.77;10.60;;;0.80;1.00;;;;;;5070695;28;20255;-75
2022/01/30 04:18:17;;;;;;;18.40;10.87;;;0.80;99.90;;;;;;5070099;28;20236;-76
2022/01/30 04:20:44;;;;;;;22.63;9.70;;;0.90;99.90;;;;;;5070252;28;20645;-78
2022/01/30 04:23:13;;;;;;;18.20;9.93;;;0.60;99.90;;;;;;5070000;28;20679;-76
2022/01/30 04:25:40;;;;;;;17.67;10.47;;;0.50;37.90;;;;;;5070416;28;20244;-77
2022/01/30 04:28:07;;;;;;;19.60;10.47;;;0.50;1.00;;;;;;5070294;28;20260;-77
2022/01/30 04:30:35;;;;;;;21.03;10.17;;;0.70;99.90;;;;;;5070369;28;20267;-74
2022/01/30 04:33:02;;;;;;;19.30;11.17;;;0.70;1.00;;;;;;5070325;28;20584;-74
2022/01/30 04:35:30;;;;;;;18.97;12.00;;;0.70;1.00;;;;;;5070518;28;20214;-75
2022/01/30 04:52:18;;;;;;;25.90;10.57;;;0.50;1.00;;;;;;5070415;28;20232;-75
2022/01/30 04:57:49;;;;;;;22.47;11.23;;;0.50;1.00;;;;;;5070455;28;20674;-74
2022/01/30 05:00:32;;;;;;;18.13;10.67;;;0.50;99.90;;;;;;5069734;28;20289;-75
2022/01/30 05:03:07;;;;;;;17.37;9.70;;;0.70;1.00;;;;;;5070071;28;20252;-75
2022/01/30 05:05:46;;;;;;;23.00;11.57;;;0.60;99.90;;;;;;5070069;28;20213;-75
2022/01/30 05:08:13;;;;;;;21.63;12.33;;;0.70;93.90;;;;;;5069749;28;20208;-75
2022/01/30 05:10:40;;;;;;;18.50;11.67;;;0.50;99.90;;;;;;5069981;28;20236;-74
2022/01/30 05:13:14;;;;;;;21.87;13.17;;;0.60;1.00;;;;;;5069673;28;20653;-74
2022/01/30 05:15:43;;;;;;;22.57;12.10;;;0.80;14.90;;;;;;5070299;28;20202;-75
2022/01/30 05:18:10;;;;;;;21.10;11.67;;;0.80;99.90;;;;;;5073047;28;20207;-74
2022/01/30 05:20:38;;;;;;;22.53;12.67;;;0.50;99.80;;;;;;5073523;28;20677;-75
2022/01/30 05:23:05;;;;;;;19.97;12.10;;;0.80;1.00;;;;;;5072950;28;20206;-74
2022/01/30 05:25:33;;;;;;;23.40;12.80;;;0.90;1.00;;;;;;5073561;28;20205;-74
2022/01/30 05:28:01;;;;;;;23.17;12.07;;;0.80;1.00;;;;;;5073745;28;20260;-75
2022/01/30 05:30:31;;;;;;;20.37;11.20;;;1.00;1.00;;;;;;5073604;28;20598;-76
2022/01/30 05:32:58;;;;;;;18.93;10.73;;;1.00;99.90;;;;;;5073548;28;20198;-76
2022/01/30 05:35:26;;;;;;;16.93;11.00;;;0.90;1.00;;;;;;5072948;28;20620;-76
2022/01/30 05:37:55;;;;;;;20.20;11.73;;;0.80;99.90;;;;;;5073295;28;20255;-76
2022/01/30 05:40:23;;;;;;;19.73;9.50;;;0.90;1.00;;;;;;5072794;28;20768;-76
2022/01/30 05:42:51;;;;;;;18.07;8.80;;;0.80;1.00;;;;;;5073294;28;20217;-75
2022/01/30 05:45:26;;;;;;;16.73;8.87;;;0.80;1.00;;;;;;5072841;28;20276;-78
2022/01/30 05:47:58;;;;;;;14.97;8.97;;;0.70;1.00;;;;;;5073334;28;20202;-75
2022/01/30 05:50:26;;;;;;;20.17;9.70;;;0.70;1.00;;;;;;5072724;28;20200;-75
2022/01/30 05:52:53;;;;;;;16.00;8.80;;;0.70;99.90;;;;;;5073130;28;20205;-76
2022/01/30 05:55:20;;;;;;;18.43;10.10;;;0.70;99.90;;;;;;5072159;28;20259;-74
2022/01/30 05:57:47;;;;;;;20.30;10.73;;;0.70;1.00;;;;;;5072762;28;20201;-75
2022/01/30 06:00:15;;;;;;;17.13;10.23;;;0.70;1.00;;;;;;5072317;28;20229;-75
2022/01/30 06:02:43;;;;;;;16.83;8.90;;;0.80;1.00;;;;;;5072335;28;20198;-77
2022/01/30 06:05:13;;;;;;;13.77;8.60;;;0.70;1.00;;;;;;5072646;28;20267;-75
2022/01/30 06:07:50;;;;;;;17.73;9.40;;;0.70;99.90;;;;;;5072748;28;20221;-73
2022/01/30 06:10:17;;;;;;;15.17;8.33;;;0.70;59.40;;;;;;5072044;28;20206;-73
2022/01/30 06:12:44;;;;;;;15.27;7.23;;;0.70;1.00;;;;;;5072862;28;20202;-77
2022/01/30 06:15:13;;;;;;;13.07;6.83;;;0.80;98.40;;;;;;5071853;28;20343;-75
2022/01/30 06:17:40;;;;;;;17.03;8.83;;;0.80;1.00;;;;;;5072552;28;20271;-74
2022/01/30 06:20:08;;;;;;;14.60;7.53;;;0.70;1.00;;;;;;5072211;28;20248;-73
2022/01/30 06:22:36;;;;;;;12.23;7.73;;;0.80;1.00;;;;;;5072298;28;20604;-74
2022/01/30 06:25:04;;;;;;;12.43;8.13;;;0.90;74.50;;;;;;5071889;28;20218;-75
2022/01/30 06:27:31;;;;;;;13.63;8.47;;;0.90;1.00;;;;;;5071811;28;20252;-74
2022/01/30 06:29:58;;;;;;;12.93;8.23;;;1.10;1.00;;;;;;5072409;28;20202;-75
2022/01/30 06:32:26;;;;;;;15.47;9.13;;;0.90;1.00;;;;;;5071676;28;20743;-74
2022/01/30 06:34:54;;;;;;;10.87;8.07;;;0.90;1.00;;;;;;5072272;28;20234;-74
2022/01/30 06:37:21;;;;;;;14.70;7.70;;;1.10;99.90;;;;;;5071834;28;20254;-75
2022/01/30 06:39:49;;;;;;;11.63;8.03;;;1.10;1.00;;;;;;5072047;28;20275;-76
2022/01/30 06:42:16;;;;;;;16.10;9.90;;;1.00;99.90;;;;;;5071607;28;20661;-75
2022/01/30 06:44:44;;;;;;;21.77;10.77;;;1.00;99.90;;;;;;5071978;28;20198;-76
2022/01/30 06:47:12;;;;;;;15.40;9.40;;;1.00;99.90;;;;;;5071757;28;20280;-75
2022/01/30 06:49:39;;;;;;;27.90;12.30;;;1.00;99.90;;;;;;5072046;28;20206;-75
2022/01/30 06:52:09;;;;;;;15.90;10.23;;;0.90;1.00;;;;;;5071524;28;20259;-76
2022/01/30 06:54:38;;;;;;;14.27;10.40;;;0.90;1.00;;;;;;5071688;28;20269;-75
2022/01/30 06:57:07;;;;;;;11.17;7.20;;;1.00;1.00;;;;;;5071372;28;20198;-75
2022/01/30 06:59:35;;;;;;;12.80;7.13;;;0.90;99.90;;;;;;5071367;28;20670;-75
2022/01/30 07:02:02;;;;;;;13.77;8.43;;;1.00;99.90;;;;;;5071657;28;20198;-75
2022/01/30 07:04:29;;;;;;;14.03;6.97;;;0.90;55.30;;;;;;5071940;28;20206;-75
2022/01/30 07:06:57;;;;;;;15.30;8.00;;;0.80;99.90;;;;;;5071969;28;20209;-75
2022/01/30 07:09:24;;;;;;;16.47;7.03;;;0.80;1.00;;;;;;5071030;28;20204;-75
2022/01/30 07:11:51;;;;;;;11.00;7.80;;;0.90;1.00;;;;;;5071624;28;20214;-75
2022/01/30 07:14:19;;;;;;;14.47;7.30;;;1.00;1.00;;;;;;5070549;28;20230;-75
2022/01/30 07:16:46;;;;;;;10.93;6.90;;;1.10;1.00;;;;;;5071737;28;20278;-75
2022/01/30 07:19:13;;;;;;;11.97;6.73;;;1.20;1.00;;;;;;5070989;28;20268;-75
2022/01/30 07:21:40;;;;;;;13.93;7.93;;;1.20;99.90;;;;;;5071343;28;20259;-75
2022/01/30 07:24:08;;;;;;;14.47;8.10;;;1.30;1.00;;;;;;5070734;28;20222;-75
2022/01/30 07:26:35;;;;;;;12.17;7.40;;;1.30;1.00;;;;;;5071143;28;20208;-76
2022/01/30 07:29:03;;;;;;;10.13;7.07;;;1.30;1.00;;;;;;5071170;28;20205;-76
2022/01/30 07:31:32;;;;;;;13.40;6.87;;;1.10;1.00;;;;;;5078405;28;20202;-75
2022/01/30 07:33:59;;;;;;;10.47;6.47;;;1.10;6.30;;;;;;5082305;28;20225;-75
2022/01/30 07:36:27;;;;;;;13.30;7.60;;;1.00;1.00;;;;;;5078831;28;20198;-75
2022/01/30 07:38:54;;;;;;;11.23;7.37;;;1.00;1.00;;;;;;5077022;28;20221;-76
2022/01/30 07:41:22;;;;;;;10.53;6.83;;;1.10;1.00;;;;;;5077729;28;20248;-74
2022/01/30 07:43:49;;;;;;;15.20;8.27;;;1.20;1.00;;;;;;5087186;28;20213;-74
2022/01/30 07:46:16;;;;;;;12.20;7.17;;;1.20;1.00;;;;;;5085770;28;20201;-75
2022/01/30 07:48:44;;;;;;;16.97;9.13;;;1.30;99.90;;;;;;5085648;28;20216;-78
2022/01/30 07:51:11;;;;;;;12.83;7.50;;;1.40;1.00;;;;;;5070459;28;20259;-76
2022/01/30 07:53:38;;;;;;;10.20;6.53;;;1.20;99.90;;;;;;5079481;28;20289;-75
2022/01/30 07:56:05;;;;;;;11.30;6.43;;;1.10;88.30;;;;;;5090765;28;20205;-75
2022/01/30 07:58:32;;;;;;;12.23;6.40;;;1.10;99.90;;;;;;5090898;28;20247;-75
2022/01/30 08:00:59;;;;;;;10.10;6.20;;;1.10;99.90;;;;;;5091281;28;20197;-75
2022/01/30 08:03:26;;;;;;;12.47;6.70;;;1.20;1.00;;;;;;5086641;28;20214;-75
2022/01/30 08:05:54;;;;;;;11.13;6.90;;;1.30;1.00;;;;;;5074091;28;20952;-75
2022/01/30 08:08:22;;;;;;;16.70;7.97;;;1.40;70.10;;;;;;5070257;28;20688;-75
2022/01/30 08:10:49;;;;;;;10.40;7.27;;;1.50;1.00;;;;;;5089713;28;20595;-75
2022/01/30 08:13:16;;;;;;;12.97;8.87;;;1.50;1.00;;;;;;5089541;28;20193;-75
2022/01/30 08:15:43;;;;;;;9.67;6.10;;;1.40;1.00;;;;;;5090253;28;20229;-75
2022/01/30 08:18:10;;;;;;;11.47;7.20;;;1.40;1.00;;;;;;5089979;28;20303;-75
2022/01/30 08:20:38;;;;;;;12.50;6.80;;;1.40;1.00;;;;;;5090388;28;20261;-75
2022/01/30 08:23:11;;;;;;;11.70;6.47;;;1.40;1.00;;;;;;5080200;28;20244;-75
2022/01/30 08:25:40;;;;;;;12.87;5.87;;;1.30;1.00;;;;;;5070046;28;20256;-75
2022/01/30 08:28:07;;;;;;;9.30;6.07;;;1.30;1.00;;;;;;5073351;28;20202;-76
2022/01/30 08:30:34;;;;;;;10.67;6.03;;;1.40;1.00;;;;;;5073969;28;20579;-76
2022/01/30 08:33:02;;;;;;;11.83;6.30;;;1.50;1.00;;;;;;5079831;28;20217;-76
2022/01/30 08:35:30;;;;;;;9.00;5.37;;;1.50;99.90;;;;;;5076461;28;20233;-75
2022/01/30 08:37:58;;;;;;;9.90;6.43;;;1.30;73.10;;;;;;5090575;28;20209;-75
2022/01/30 08:40:27;;;;;;;7.57;4.93;;;1.20;1.00;;;;;;5082776;28;20252;-74
2022/01/30 08:42:54;;;;;;;11.57;6.30;;;1.30;1.00;;;;;;5090219;28;20209;-75
2022/01/30 08:45:22;;;;;;;11.30;7.37;;;1.50;1.00;;;;;;5089102;28;20214;-74
2022/01/30 08:47:51;;;;;;;10.70;6.07;;;1.40;99.90;;;;;;5090244;28;20278;-74
2022/01/30 08:50:19;;;;;;;7.93;6.63;;;1.30;99.90;;;;;;5090152;28;20259;-75
2022/01/30 08:52:46;;;;;;;17.37;12.17;;;1.40;1.00;;;;;;5078230;28;20630;-75
2022/01/30 08:55:14;;;;;;;29.23;22.27;;;1.20;1.00;;;;;;5073407;28;20299;-74
2022/01/30 08:57:43;;;;;;;17.80;14.57;;;1.10;1.00;;;;;;5073887;28;20202;-75
2022/01/30 09:00:12;;;;;;;11.17;7.83;;;1.30;1.00;;;;;;5078263;28;20672;-74
2022/01/30 09:02:40;;;;;;;11.13;6.63;;;1.60;1.00;;;;;;5083975;28;20256;-75
2022/01/30 09:05:08;;;;;;;9.97;6.27;;;1.80;1.00;;;;;;5082284;28;20246;-77
2022/01/30 09:07:35;;;;;;;8.27;5.70;;;1.70;1.00;;;;;;5091237;28;20209;-77
2022/01/30 09:10:03;;;;;;;9.07;6.67;;;1.70;1.00;;;;;;5091289;28;20213;-78
2022/01/30 09:12:30;;;;;;;9.87;6.30;;;1.70;99.90;;;;;;5087948;28;20673;-75
2022/01/30 09:14:59;;;;;;;7.50;4.67;;;1.90;99.90;;;;;;5073615;28;20273;-77
2022/01/30 09:17:28;;;;;;;8.23;6.10;;;1.80;1.00;;;;;;5073648;28;20202;-77
2022/01/30 09:19:55;;;;;;;10.97;6.37;;;1.70;1.00;;;;;;5073778;28;20213;-78
2022/01/30 09:22:22;;;;;;;11.37;6.37;;;1.70;1.00;;;;;;5082618;28;20217;-78
2022/01/30 09:24:49;;;;;;;9.67;6.70;;;1.80;7.90;;;;;;5083156;28;20279;-73
2022/01/30 09:27:17;;;;;;;8.40;6.07;;;1.80;1.00;;;;;;5081069;28;20210;-76
2022/01/30 09:29:44;;;;;;;9.63;5.60;;;1.80;1.00;;;;;;5090139;28;20255;-74
2022/01/30 09:32:14;;;;;;;7.57;5.77;;;1.80;1.00;;;;;;5085960;28;20255;-73
2022/01/30 09:34:41;;;;;;;10.60;7.43;;;1.80;1.00;;;;;;5077408;28;20320;-75
2022/01/30 09:37:08;;;;;;;8.73;5.17;;;2.00;1.00;;;;;;5077174;28;20730;-75
2022/01/30 09:39:35;;;;;;;7.77;6.43;;;1.90;1.00;;;;;;5088897;28;20198;-76
2022/01/30 09:42:03;;;;;;;9.67;6.20;;;2.00;1.00;;;;;;5079504;28;20210;-73
2022/01/30 09:44:31;;;;;;;17.43;11.93;;;2.00;1.00;;;;;;5081666;28;20252;-74
2022/01/30 09:46:58;;;;;;;19.53;15.03;;;2.00;1.00;;;;;;5072702;28;20670;-73
2022/01/30 09:49:30;;;;;;;10.47;5.77;;;1.90;1.00;;;;;;5070919;28;20652;-74
2022/01/30 09:51:58;;;;;;;9.00;5.90;;;1.90;1.00;;;;;;5072363;28;20615;-73
2022/01/30 09:54:25;;;;;;;9.87;6.57;;;2.10;1.00;;;;;;5071995;28;20265;-74
2022/01/30 09:56:52;;;;;;;14.30;10.23;;;2.30;1.00;;;;;;5072943;28;20685;-74
2022/01/30 09:59:19;;;;;;;13.90;10.40;;;2.20;1.00;;;;;;5072616;28;20700;-74
2022/01/30 10:01:45;;;;;;;10.97;8.77;;;2.10;1.00;;;;;;5072571;28;20210;-74
2022/01/30 10:04:12;;;;;;;9.77;6.93;;;1.90;1.00;;;;;;5071415;28;20206;-74
2022/01/30 10:07:06;;;;;;;7.77;5.57;;;1.90;1.00;;;;;;5072646;28;20210;-73
2022/01/30 10:09:36;;;;;;;7.20;5.20;;;2.20;1.00;;;;;;5076815;28;20297;-73
2022/01/30 10:12:14;;;;;;;11.03;5.93;;;2.50;1.00;;;;;;5082581;28;20209;-73
2022/01/30 10:14:55;;;;;;;12.13;8.73;;;2.50;99.90;;;;;;5087424;28;20316;-73
2022/01/30 10:17:27;;;;;;;10.43;7.47;;;2.50;99.90;;;;;;5092026;28;20205;-73
2022/01/30 10:20:11;;;;;;;10.00;5.77;;;2.20;1.00;;;;;;5092477;28;20220;-74
2022/01/30 10:22:54;;;;;;;9.67;6.93;;;2.50;99.90;;;;;;5092088;28;20205;-73
2022/01/30 10:25:23;;;;;;;12.43;8.43;;;2.50;1.00;;;;;;5091685;28;20218;-73
2022/01/30 10:28:04;;;;;;;14.60;11.90;;;2.50;1.00;;;;;;5078360;28;20247;-74
2022/01/30 10:30:39;;;;;;;10.30;7.00;;;2.70;1.00;;;;;;5092351;28;20209;-73
2022/01/30 10:33:08;;;;;;;11.30;8.57;;;2.40;1.00;;;;;;5092156;28;20208;-73
2022/01/30 10:35:47;;;;;;;8.23;5.00;;;2.50;1.00;;;;;;5091796;28;20265;-74
2022/01/30 10:38:21;;;;;;;9.43;5.50;;;2.40;1.00;;;;;;5091533;28;20242;-73
2022/01/30 10:40:54;;;;;;;9.27;6.53;;;2.40;1.00;;;;;;5091941;28;20212;-74
2022/01/30 10:43:21;;;;;;;8.30;5.20;;;2.50;1.00;;;;;;5091550;28;20682;-74
2022/01/30 10:45:48;;;;;;;7.00;5.57;;;2.60;1.00;;;;;;5077827;28;20271;-73
2022/01/30 10:48:17;;;;;;;8.50;6.27;;;2.40;63.90;;;;;;5091298;28;20235;-73
2022/01/30 10:50:47;;;;;;;13.03;10.87;;;2.50;1.00;;;;;;5091280;28;20205;-73
2022/01/30 10:53:23;;;;;;;9.33;7.00;;;2.30;1.00;;;;;;5091232;28;20630;-73
2022/01/30 10:55:51;;;;;;;7.33;6.37;;;2.30;99.90;;;;;;5091668;28;20297;-72
2022/01/30 10:58:19;;;;;;;12.27;9.27;;;2.70;99.90;;;;;;5091168;28;20259;-73
2022/01/30 11:00:49;;;;;;;5.00;4.03;;;2.90;99.90;;;;;;5091228;28;20206;-72
2022/01/30 11:03:35;;;;;;;7.53;4.87;;;3.00;99.90;;;;;;5089798;28;20734;-73
2022/01/30 11:06:03;;;;;;;7.47;4.33;;;2.90;1.00;;;;;;5091188;28;20738;-74
2022/01/30 11:08:33;;;;;;;8.07;5.83;;;2.90;1.00;;;;;;5091725;28;20208;-73
2022/01/30 11:11:03;;;;;;;7.63;5.60;;;3.00;1.00;;;;;;5091425;28;20296;-73
2022/01/30 11:13:33;;;;;;;6.80;4.73;;;2.80;1.00;;;;;;5091397;28;20213;-73
2022/01/30 11:18:44;;;;;;;6.33;5.03;;;3.00;1.00;;;;;;5091000;28;20233;-73
2022/01/30 11:21:11;;;;;;;10.47;6.50;;;3.20;1.00;;;;;;5090598;28;20204;-73
2022/01/30 11:23:42;;;;;;;10.13;7.43;;;3.20;1.00;;;;;;5090986;28;20220;-75
2022/01/30 11:26:10;;;;;;;7.67;5.97;;;2.80;1.00;;;;;;5090516;28;20205;-73
2022/01/30 11:28:38;;;;;;;12.80;8.00;;;2.70;1.00;;;;;;5091128;28;20231;-74
2022/01/30 11:31:06;;;;;;;7.47;5.07;;;3.00;99.90;;;;;;5090478;28;20201;-73
2022/01/30 11:33:34;;;;;;;8.83;4.67;;;2.80;99.90;;;;;;5090894;28;20254;-72
2022/01/30 11:36:02;;;;;;;5.13;4.13;;;2.70;99.90;;;;;;5083789;28;20274;-73
2022/01/30 11:38:29;;;;;;;5.80;4.43;;;2.70;99.90;;;;;;5081241;28;20213;-75
2022/01/30 11:41:15;;;;;;;6.57;5.63;;;2.80;99.90;;;;;;5087491;28;20209;-75
2022/01/30 11:44:02;;;;;;;8.20;6.23;;;3.10;99.90;;;;;;5090722;28;20209;-74
2022/01/30 11:46:29;;;;;;;6.80;5.23;;;3.30;99.90;;;;;;5081588;28;20209;-74
2022/01/30 11:49:12;;;;;;;6.73;5.63;;;3.10;99.90;;;;;;5087705;28;20271;-74
2022/01/30 11:51:49;;;;;;;10.43;7.00;;;2.80;99.90;;;;;;5070899;28;20285;-75
2022/01/30 11:54:36;;;;;;;8.00;6.27;;;2.80;1.00;;;;;;5076406;28;20212;-74
2022/01/30 11:57:27;;;;;;;8.93;6.10;;;2.90;1.00;;;;;;5079392;28;20234;-75
2022/01/30 11:59:56;;;;;;;12.53;6.33;;;3.00;99.90;;;;;;5075902;28;20301;-74
2022/01/30 12:02:24;;;;;;;6.13;4.67;;;3.20;99.90;;;;;;5070576;28;20239;-74
2022/01/30 12:04:54;;;;;;;11.70;6.60;;;3.30;99.90;;;;;;5085499;28;20254;-74
2022/01/30 12:07:33;;;;;;;7.10;5.40;;;3.10;99.90;;;;;;5090571;28;20202;-75
2022/01/30 12:10:33;;;;;;;7.13;5.30;;;3.00;99.90;;;;;;5091380;28;20288;-74
2022/01/30 12:13:04;;;;;;;9.17;6.20;;;3.10;99.90;;;;;;5089572;28;20211;-74
2022/01/30 12:15:38;;;;;;;7.17;5.10;;;3.20;99.90;;;;;;5090929;28;20765;-75
2022/01/30 12:18:06;;;;;;;10.47;6.37;;;3.30;99.90;;;;;;5082705;28;20266;-74
2022/01/30 12:20:53;;;;;;;13.20;7.47;;;3.40;99.90;;;;;;5090761;28;20673;-74
2022/01/30 12:23:26;;;;;;;7.77;5.77;;;3.40;1.00;;;;;;5070025;28;20210;-74
2022/01/30 12:26:03;;;;;;;8.30;5.70;;;3.60;98.00;;;;;;5070951;28;20571;-74
2022/01/30 12:28:45;;;;;;;8.40;5.57;;;3.50;99.90;;;;;;5076852;28;20205;-74
2022/01/30 12:31:34;;;;;;;8.63;5.37;;;3.60;99.90;;;;;;5086746;28;20201;-74
2022/01/30 12:34:02;;;;;;;8.73;5.93;;;3.70;99.90;;;;;;5072826;28;20288;-74
2022/01/30 12:36:32;;;;;;;6.90;5.27;;;3.60;40.30;;;;;;5074685;28;20234;-74
2022/01/30 12:39:02;;;;;;;7.80;5.60;;;3.70;99.90;;;;;;5086038;28;20259;-74
2022/01/30 12:41:31;;;;;;;9.77;6.13;;;3.70;30.00;;;;;;5085438;28;20254;-74
2022/01/30 12:44:01;;;;;;;10.77;7.77;;;3.70;1.00;;;;;;5092817;28;20210;-74
2022/01/30 12:46:34;;;;;;;9.73;6.40;;;3.70;99.90;;;;;;5094606;28;20703;-74
2022/01/30 12:49:13;;;;;;;8.93;6.83;;;3.80;99.90;;;;;;5083779;28;20205;-74
2022/01/30 12:51:43;;;;;;;8.80;6.13;;;3.70;12.70;;;;;;5086170;28;20206;-74
2022/01/30 12:54:11;;;;;;;11.80;8.23;;;3.80;1.00;;;;;;5088814;28;20617;-72
2022/01/30 12:56:38;;;;;;;11.90;8.40;;;3.90;1.00;;;;;;5094275;28;20696;-75
2022/01/30 12:59:08;;;;;;;8.20;5.90;;;3.90;1.00;;;;;;5092219;28;20205;-74
2022/01/30 13:01:37;;;;;;;15.33;10.50;;;3.90;1.00;;;;;;5084043;28;20351;-76
2022/01/30 13:04:06;;;;;;;14.60;11.23;;;3.80;1.00;;;;;;5073329;28;20206;-75
2022/01/30 13:06:36;;;;;;;24.60;12.53;;;3.80;1.00;;;;;;5073846;28;20206;-77
2022/01/30 13:09:04;;;;;;;10.93;7.67;;;3.70;1.00;;;;;;5079456;28;20263;-75
2022/01/30 13:11:31;;;;;;;8.90;5.60;;;3.60;1.00;;;;;;5076948;28;20213;-76
2022/01/30 13:14:03;;;;;;;7.93;6.00;;;3.70;1.00;;;;;;5073753;28;20259;-75
2022/01/30 13:16:34;;;;;;;10.03;7.20;;;3.80;1.00;;;;;;5073550;28;20241;-75
2022/01/30 13:19:02;;;;;;;8.33;6.73;;;3.60;1.00;;;;;;5073755;28;20251;-75
2022/01/30 13:21:31;;;;;;;8.13;5.93;;;3.60;1.00;;;;;;5073930;28;20202;-75
2022/01/30 13:23:59;;;;;;;8.17;5.70;;;3.70;29.10;;;;;;5073502;28;20206;-76
2022/01/30 13:26:31;;;;;;;10.07;7.93;;;3.70;1.00;;;;;;5073031;28;20198;-75
2022/01/30 13:28:59;;;;;;;9.50;7.67;;;3.40;1.00;;;;;;5073678;28;20244;-75
2022/01/30 13:31:26;;;;;;;9.50;6.30;;;3.40;1.00;;;;;;5072850;28;20206;-75
2022/01/30 13:34:14;;;;;;;7.90;6.03;;;3.50;1.00;;;;;;5073158;28;20609;-75
2022/01/30 13:36:43;;;;;;;7.93;6.13;;;3.80;1.00;;;;;;5072775;28;20708;-75
2022/01/30 13:39:14;;;;;;;5.97;4.93;;;3.70;1.00;;;;;;5075985;28;20211;-75
2022/01/30 13:41:59;;;;;;;10.13;8.37;;;3.80;1.00;;;;;;5083398;28;20209;-75
2022/01/30 13:44:26;;;;;;;6.20;5.43;;;3.90;1.00;;;;;;5083970;28;20217;-75
2022/01/30 13:47:03;;;;;;;6.00;5.40;;;3.90;1.00;;;;;;5093130;28;20582;-75